Terminal Aerodrome Forecast
Issued by NWS

Home | Current Version | Previous Version | Text Only | Print | Product List | Glossary Off
Versions: 1 2 3 4 5 6 7 8 9 10 11 12 13 14 15 16 17 18 19 20 21 22 23 24 25 26 27 28 29 30 31 32 33 34 35

000
FTUS43 KGRB 260804 AAA
TAFRHI
TAF AMD
KRHI 260804Z 2608/2706 22003KT 6SM BR SCT006 BKN150
      TEMPO 2609/2613 3/4SM BR BKN006
     FM261500 22007KT P6SM BKN015 BKN100
     FM261700 22007KT P6SM SCT035 BKN070
     FM261900 24005KT P6SM -SHRA BKN035 OVC070
     FM262200 30005KT 4SM SHRA BR BKN015 OVC035
      TEMPO 2700/2704 1 1/2SM +RA BR BKN006=

USA.gov is the U.S. government's official web portal to all federal, state and local government web resources and services.